sensor_id;sensor_type;location;lat;lon;timestamp;P1;P2;P0
61592;PMS5003;47485;51.378;-1.342;2023-02-28T00:02:13;11;9;
61592;PMS5003;47485;51.378;-1.342;2023-02-28T00:04:39;9;8;
61592;PMS5003;47485;51.378;-1.342;2023-02-28T00:07:06;9;9;
61592;PMS5003;47485;51.378;-1.342;2023-02-28T00:09:33;11;9;
61592;PMS5003;47485;51.378;-1.342;2023-02-28T00:12:00;10;9;
61592;PMS5003;47485;51.378;-1.342;2023-02-28T00:14:27;9;9;
61592;PMS5003;47485;51.378;-1.342;2023-02-28T00:16:56;11;10;
61592;PMS5003;47485;51.378;-1.342;2023-02-28T00:19:23;10;9;
61592;PMS5003;47485;51.378;-1.342;2023-02-28T00:21:51;13;9;
61592;PMS5003;47485;51.378;-1.342;2023-02-28T00:24:18;11;8;
61592;PMS5003;47485;51.378;-1.342;2023-02-28T00:26:45;12;10;
61592;PMS5003;47485;51.378;-1.342;2023-02-28T00:29:12;17;12;
61592;PMS5003;47485;51.378;-1.342;2023-02-28T00:31:39;16;13;
61592;PMS5003;47485;51.378;-1.342;2023-02-28T00:34:06;14;10;
61592;PMS5003;47485;51.378;-1.342;2023-02-28T00:36:33;14;13;
61592;PMS5003;47485;51.378;-1.342;2023-02-28T00:39:00;18;14;
61592;PMS5003;47485;51.378;-1.342;2023-02-28T00:41:27;10;10;
61592;PMS5003;47485;51.378;-1.342;2023-02-28T00:43:54;15;13;
61592;PMS5003;47485;51.378;-1.342;2023-02-28T00:46:21;13;13;
61592;PMS5003;47485;51.378;-1.342;2023-02-28T00:48:48;18;15;
61592;PMS5003;47485;51.378;-1.342;2023-02-28T00:51:16;16;14;
61592;PMS5003;47485;51.378;-1.342;2023-02-28T00:53:43;12;12;
61592;PMS5003;47485;51.378;-1.342;2023-02-28T00:56:10;14;11;
61592;PMS5003;47485;51.378;-1.342;2023-02-28T00:58:37;18;15;
61592;PMS5003;47485;51.378;-1.342;2023-02-28T01:01:03;14;13;
61592;PMS5003;47485;51.378;-1.342;2023-02-28T01:03:31;16;16;
61592;PMS5003;47485;51.378;-1.342;2023-02-28T01:05:59;19;14;
61592;PMS5003;47485;51.378;-1.342;2023-02-28T01:08:26;16;13;
61592;PMS5003;47485;51.378;-1.342;2023-02-28T01:10:53;24;15;
61592;PMS5003;47485;51.378;-1.342;2023-02-28T01:13:21;16;15;
61592;PMS5003;47485;51.378;-1.342;2023-02-28T01:15:49;18;14;
61592;PMS5003;47485;51.378;-1.342;2023-02-28T01:18:18;17;13;
61592;PMS5003;47485;51.378;-1.342;2023-02-28T01:20:45;15;12;
61592;PMS5003;47485;51.378;-1.342;2023-02-28T01:23:12;12;12;
61592;PMS5003;47485;51.378;-1.342;2023-02-28T01:25:39;12;11;
61592;PMS5003;47485;51.378;-1.342;2023-02-28T01:28:07;16;12;
61592;PMS5003;47485;51.378;-1.342;2023-02-28T01:30:34;18;12;
61592;PMS5003;47485;51.378;-1.342;2023-02-28T01:33:01;16;16;
61592;PMS5003;47485;51.378;-1.342;2023-02-28T01:35:32;12;10;
61592;PMS5003;47485;51.378;-1.342;2023-02-28T01:38:00;10;10;
61592;PMS5003;47485;51.378;-1.342;2023-02-28T01:40:28;14;14;
61592;PMS5003;47485;51.378;-1.342;2023-02-28T01:42:55;15;13;
61592;PMS5003;47485;51.378;-1.342;2023-02-28T01:45:24;13;11;
61592;PMS5003;47485;51.378;-1.342;2023-02-28T01:47:55;14;13;
61592;PMS5003;47485;51.378;-1.342;2023-02-28T01:50:28;14;10;
61592;PMS5003;47485;51.378;-1.342;2023-02-28T01:52:59;14;9;
61592;PMS5003;47485;51.378;-1.342;2023-02-28T01:55:29;17;16;
61592;PMS5003;47485;51.378;-1.342;2023-02-28T01:57:59;17;13;
61592;PMS5003;47485;51.378;-1.342;2023-02-28T02:00:28;18;16;
61592;PMS5003;47485;51.378;-1.342;2023-02-28T02:02:57;14;14;
61592;PMS5003;47485;51.378;-1.342;2023-02-28T02:05:31;14;11;
61592;PMS5003;47485;51.378;-1.342;2023-02-28T02:08:01;15;9;
61592;PMS5003;47485;51.378;-1.342;2023-02-28T02:10:31;16;15;
61592;PMS5003;47485;51.378;-1.342;2023-02-28T02:13:06;16;12;
61592;PMS5003;47485;51.378;-1.342;2023-02-28T02:15:44;11;11;
61592;PMS5003;47485;51.378;-1.342;2023-02-28T02:18:23;18;15;
61592;PMS5003;47485;51.378;-1.342;2023-02-28T02:21:08;19;16;
61592;PMS5003;47485;51.378;-1.342;2023-02-28T02:23:54;11;10;
61592;PMS5003;47485;51.378;-1.342;2023-02-28T02:28:54;20;18;
61592;PMS5003;47485;51.378;-1.342;2023-02-28T02:31:45;19;16;
61592;PMS5003;47485;51.378;-1.342;2023-02-28T02:34:31;27;21;
61592;PMS5003;47485;51.378;-1.342;2023-02-28T02:37:09;22;18;
61592;PMS5003;47485;51.378;-1.342;2023-02-28T02:39:48;22;16;
61592;PMS5003;47485;51.378;-1.342;2023-02-28T02:42:21;23;21;
61592;PMS5003;47485;51.378;-1.342;2023-02-28T02:44:55;18;16;
61592;PMS5003;47485;51.378;-1.342;2023-02-28T02:47:28;18;16;
61592;PMS5003;47485;51.378;-1.342;2023-02-28T02:49:58;18;15;
61592;PMS5003;47485;51.378;-1.342;2023-02-28T02:52:29;16;14;
61592;PMS5003;47485;51.378;-1.342;2023-02-28T02:55:00;18;13;
61592;PMS5003;47485;51.378;-1.342;2023-02-28T02:57:30;19;16;
61592;PMS5003;47485;51.378;-1.342;2023-02-28T03:00:00;17;17;
61592;PMS5003;47485;51.378;-1.342;2023-02-28T03:02:28;21;20;
61592;PMS5003;47485;51.378;-1.342;2023-02-28T03:04:58;15;14;
61592;PMS5003;47485;51.378;-1.342;2023-02-28T03:07:27;20;18;
61592;PMS5003;47485;51.378;-1.342;2023-02-28T03:09:54;19;16;
61592;PMS5003;47485;51.378;-1.342;2023-02-28T03:12:22;20;16;
61592;PMS5003;47485;51.378;-1.342;2023-02-28T03:15:01;19;17;
61592;PMS5003;47485;51.378;-1.342;2023-02-28T03:17:40;22;19;
61592;PMS5003;47485;51.378;-1.342;2023-02-28T03:20:17;22;21;
61592;PMS5003;47485;51.378;-1.342;2023-02-28T03:22:56;33;27;
61592;PMS5003;47485;51.378;-1.342;2023-02-28T03:25:32;22;20;
61592;PMS5003;47485;51.378;-1.342;2023-02-28T03:28:05;29;23;
61592;PMS5003;47485;51.378;-1.342;2023-02-28T03:30:40;28;24;
61592;PMS5003;47485;51.378;-1.342;2023-02-28T03:33:12;25;24;
61592;PMS5003;47485;51.378;-1.342;2023-02-28T03:35:45;28;25;
61592;PMS5003;47485;51.378;-1.342;2023-02-28T03:38:17;33;31;
61592;PMS5003;47485;51.378;-1.342;2023-02-28T03:40:48;29;26;
61592;PMS5003;47485;51.378;-1.342;2023-02-28T03:43:19;31;24;
61592;PMS5003;47485;51.378;-1.342;2023-02-28T03:45:50;24;22;
61592;PMS5003;47485;51.378;-1.342;2023-02-28T03:48:19;24;22;
61592;PMS5003;47485;51.378;-1.342;2023-02-28T03:50:49;24;22;
61592;PMS5003;47485;51.378;-1.342;2023-02-28T03:53:21;26;24;
61592;PMS5003;47485;51.378;-1.342;2023-02-28T03:55:52;29;21;
61592;PMS5003;47485;51.378;-1.342;2023-02-28T03:58:26;23;17;
61592;PMS5003;47485;51.378;-1.342;2023-02-28T04:00:57;23;21;
61592;PMS5003;47485;51.378;-1.342;2023-02-28T04:03:29;21;17;
61592;PMS5003;47485;51.378;-1.342;2023-02-28T04:05:55;19;18;
61592;PMS5003;47485;51.378;-1.342;2023-02-28T04:08:24;23;19;
61592;PMS5003;47485;51.378;-1.342;2023-02-28T04:10:52;21;18;
61592;PMS5003;47485;51.378;-1.342;2023-02-28T04:13:22;18;15;
61592;PMS5003;47485;51.378;-1.342;2023-02-28T04:15:49;27;22;
61592;PMS5003;47485;51.378;-1.342;2023-02-28T04:18:16;24;19;
61592;PMS5003;47485;51.378;-1.342;2023-02-28T04:20:43;15;14;
61592;PMS5003;47485;51.378;-1.342;2023-02-28T04:23:10;21;19;
61592;PMS5003;47485;51.378;-1.342;2023-02-28T04:25:37;20;16;
61592;PMS5003;47485;51.378;-1.342;2023-02-28T04:28:04;22;17;
61592;PMS5003;47485;51.378;-1.342;2023-02-28T04:30:30;19;15;
61592;PMS5003;47485;51.378;-1.342;2023-02-28T04:32:57;21;17;
61592;PMS5003;47485;51.378;-1.342;2023-02-28T04:35:24;18;18;
61592;PMS5003;47485;51.378;-1.342;2023-02-28T04:37:51;17;17;
61592;PMS5003;47485;51.378;-1.342;2023-02-28T04:40:18;17;16;
61592;PMS5003;47485;51.378;-1.342;2023-02-28T04:42:45;24;17;
61592;PMS5003;47485;51.378;-1.342;2023-02-28T04:45:11;21;15;
61592;PMS5003;47485;51.378;-1.342;2023-02-28T04:47:38;21;15;
61592;PMS5003;47485;51.378;-1.342;2023-02-28T04:50:05;16;14;
61592;PMS5003;47485;51.378;-1.342;2023-02-28T04:52:32;16;13;
61592;PMS5003;47485;51.378;-1.342;2023-02-28T04:55:00;14;14;
61592;PMS5003;47485;51.378;-1.342;2023-02-28T04:57:27;17;15;
61592;PMS5003;47485;51.378;-1.342;2023-02-28T04:59:55;17;17;
61592;PMS5003;47485;51.378;-1.342;2023-02-28T05:02:22;18;15;
61592;PMS5003;47485;51.378;-1.342;2023-02-28T05:04:50;21;19;
61592;PMS5003;47485;51.378;-1.342;2023-02-28T05:07:18;14;13;
61592;PMS5003;47485;51.378;-1.342;2023-02-28T05:09:45;19;16;
61592;PMS5003;47485;51.378;-1.342;2023-02-28T05:12:12;13;13;
61592;PMS5003;47485;51.378;-1.342;2023-02-28T05:14:39;16;13;
61592;PMS5003;47485;51.378;-1.342;2023-02-28T05:17:06;16;15;
61592;PMS5003;47485;51.378;-1.342;2023-02-28T05:19:33;15;14;
61592;PMS5003;47485;51.378;-1.342;2023-02-28T05:22:00;21;18;
61592;PMS5003;47485;51.378;-1.342;2023-02-28T05:24:26;27;19;
61592;PMS5003;47485;51.378;-1.342;2023-02-28T05:26:54;17;15;
61592;PMS5003;47485;51.378;-1.342;2023-02-28T05:29:20;21;17;
61592;PMS5003;47485;51.378;-1.342;2023-02-28T05:31:48;20;17;
61592;PMS5003;47485;51.378;-1.342;2023-02-28T05:34:15;19;17;
61592;PMS5003;47485;51.378;-1.342;2023-02-28T05:36:43;17;16;
61592;PMS5003;47485;51.378;-1.342;2023-02-28T05:39:09;24;20;
61592;PMS5003;47485;51.378;-1.342;2023-02-28T05:41:36;19;15;
61592;PMS5003;47485;51.378;-1.342;2023-02-28T05:44:03;21;17;
61592;PMS5003;47485;51.378;-1.342;2023-02-28T05:46:30;18;18;
61592;PMS5003;47485;51.378;-1.342;2023-02-28T05:48:57;19;17;
61592;PMS5003;47485;51.378;-1.342;2023-02-28T05:51:23;21;19;
61592;PMS5003;47485;51.378;-1.342;2023-02-28T05:53:50;22;21;
61592;PMS5003;47485;51.378;-1.342;2023-02-28T05:56:17;17;17;
61592;PMS5003;47485;51.378;-1.342;2023-02-28T05:58:44;18;15;
61592;PMS5003;47485;51.378;-1.342;2023-02-28T06:01:19;19;17;
61592;PMS5003;47485;51.378;-1.342;2023-02-28T06:03:50;25;19;
61592;PMS5003;47485;51.378;-1.342;2023-02-28T06:06:17;20;18;
61592;PMS5003;47485;51.378;-1.342;2023-02-28T06:08:45;17;16;
61592;PMS5003;47485;51.378;-1.342;2023-02-28T06:11:12;23;18;
61592;PMS5003;47485;51.378;-1.342;2023-02-28T06:13:39;24;18;
61592;PMS5003;47485;51.378;-1.342;2023-02-28T06:16:07;21;20;
61592;PMS5003;47485;51.378;-1.342;2023-02-28T06:18:36;19;18;
61592;PMS5003;47485;51.378;-1.342;2023-02-28T06:21:04;16;14;
61592;PMS5003;47485;51.378;-1.342;2023-02-28T06:23:31;17;16;
61592;PMS5003;47485;51.378;-1.342;2023-02-28T06:25:58;24;21;
61592;PMS5003;47485;51.378;-1.342;2023-02-28T06:28:24;21;15;
61592;PMS5003;47485;51.378;-1.342;2023-02-28T06:30:51;17;16;
61592;PMS5003;47485;51.378;-1.342;2023-02-28T06:33:18;20;17;
61592;PMS5003;47485;51.378;-1.342;2023-02-28T06:35:46;19;16;
61592;PMS5003;47485;51.378;-1.342;2023-02-28T06:38:13;20;15;
61592;PMS5003;47485;51.378;-1.342;2023-02-28T06:40:40;19;17;
61592;PMS5003;47485;51.378;-1.342;2023-02-28T06:43:07;18;17;
61592;PMS5003;47485;51.378;-1.342;2023-02-28T06:45:34;17;14;
61592;PMS5003;47485;51.378;-1.342;2023-02-28T06:48:00;16;15;
61592;PMS5003;47485;51.378;-1.342;2023-02-28T06:50:27;16;13;
61592;PMS5003;47485;51.378;-1.342;2023-02-28T06:52:54;21;14;
61592;PMS5003;47485;51.378;-1.342;2023-02-28T06:55:20;17;17;
61592;PMS5003;47485;51.378;-1.342;2023-02-28T06:57:47;19;16;
61592;PMS5003;47485;51.378;-1.342;2023-02-28T07:00:15;31;25;
61592;PMS5003;47485;51.378;-1.342;2023-02-28T07:02:42;21;18;
61592;PMS5003;47485;51.378;-1.342;2023-02-28T07:05:09;22;19;
61592;PMS5003;47485;51.378;-1.342;2023-02-28T07:07:35;19;15;
61592;PMS5003;47485;51.378;-1.342;2023-02-28T07:10:02;19;17;
61592;PMS5003;47485;51.378;-1.342;2023-02-28T07:12:30;23;18;
61592;PMS5003;47485;51.378;-1.342;2023-02-28T07:14:56;20;19;
61592;PMS5003;47485;51.378;-1.342;2023-02-28T07:17:23;20;17;
61592;PMS5003;47485;51.378;-1.342;2023-02-28T07:19:54;20;18;
61592;PMS5003;47485;51.378;-1.342;2023-02-28T07:22:21;22;17;
61592;PMS5003;47485;51.378;-1.342;2023-02-28T07:24:49;18;18;
61592;PMS5003;47485;51.378;-1.342;2023-02-28T07:27:17;24;22;
61592;PMS5003;47485;51.378;-1.342;2023-02-28T07:29:45;23;18;
61592;PMS5003;47485;51.378;-1.342;2023-02-28T07:32:11;22;21;
61592;PMS5003;47485;51.378;-1.342;2023-02-28T07:34:38;22;18;
61592;PMS5003;47485;51.378;-1.342;2023-02-28T07:37:05;24;22;
61592;PMS5003;47485;51.378;-1.342;2023-02-28T07:39:32;20;16;
61592;PMS5003;47485;51.378;-1.342;2023-02-28T07:41:59;26;22;
61592;PMS5003;47485;51.378;-1.342;2023-02-28T07:44:26;24;19;
61592;PMS5003;47485;51.378;-1.342;2023-02-28T07:46:53;26;24;
61592;PMS5003;47485;51.378;-1.342;2023-02-28T07:49:19;21;21;
61592;PMS5003;47485;51.378;-1.342;2023-02-28T07:51:46;23;21;
61592;PMS5003;47485;51.378;-1.342;2023-02-28T07:54:13;24;20;
61592;PMS5003;47485;51.378;-1.342;2023-02-28T07:56:40;27;25;
61592;PMS5003;47485;51.378;-1.342;2023-02-28T07:59:06;18;16;
61592;PMS5003;47485;51.378;-1.342;2023-02-28T08:01:33;21;18;
61592;PMS5003;47485;51.378;-1.342;2023-02-28T08:04:00;22;17;
61592;PMS5003;47485;51.378;-1.342;2023-02-28T08:06:26;22;20;
61592;PMS5003;47485;51.378;-1.342;2023-02-28T08:08:53;19;18;
61592;PMS5003;47485;51.378;-1.342;2023-02-28T08:11:20;21;19;
61592;PMS5003;47485;51.378;-1.342;2023-02-28T08:13:47;16;16;
61592;PMS5003;47485;51.378;-1.342;2023-02-28T08:16:14;20;16;
61592;PMS5003;47485;51.378;-1.342;2023-02-28T08:18:42;18;15;
61592;PMS5003;47485;51.378;-1.342;2023-02-28T08:21:10;18;16;
61592;PMS5003;47485;51.378;-1.342;2023-02-28T08:23:38;16;15;
61592;PMS5003;47485;51.378;-1.342;2023-02-28T08:26:05;17;15;
61592;PMS5003;47485;51.378;-1.342;2023-02-28T08:28:33;16;12;
61592;PMS5003;47485;51.378;-1.342;2023-02-28T08:30:59;17;16;
61592;PMS5003;47485;51.378;-1.342;2023-02-28T08:33:28;23;18;
61592;PMS5003;47485;51.378;-1.342;2023-02-28T08:35:55;21;18;
61592;PMS5003;47485;51.378;-1.342;2023-02-28T08:38:23;15;15;
61592;PMS5003;47485;51.378;-1.342;2023-02-28T08:40:56;27;25;
61592;PMS5003;47485;51.378;-1.342;2023-02-28T08:43:24;18;17;
61592;PMS5003;47485;51.378;-1.342;2023-02-28T08:45:51;18;16;
61592;PMS5003;47485;51.378;-1.342;2023-02-28T08:48:19;21;19;
61592;PMS5003;47485;51.378;-1.342;2023-02-28T08:50:54;18;15;
61592;PMS5003;47485;51.378;-1.342;2023-02-28T08:53:22;25;18;
61592;PMS5003;47485;51.378;-1.342;2023-02-28T08:55:55;13;13;
61592;PMS5003;47485;51.378;-1.342;2023-02-28T08:58:23;26;19;
61592;PMS5003;47485;51.378;-1.342;2023-02-28T09:00:50;20;20;
61592;PMS5003;47485;51.378;-1.342;2023-02-28T09:03:18;15;14;
61592;PMS5003;47485;51.378;-1.342;2023-02-28T09:05:54;17;14;
61592;PMS5003;47485;51.378;-1.342;2023-02-28T09:08:22;14;12;
61592;PMS5003;47485;51.378;-1.342;2023-02-28T09:10:51;13;13;
61592;PMS5003;47485;51.378;-1.342;2023-02-28T09:13:18;13;13;
61592;PMS5003;47485;51.378;-1.342;2023-02-28T09:15:45;15;14;
61592;PMS5003;47485;51.378;-1.342;2023-02-28T09:18:12;25;20;
61592;PMS5003;47485;51.378;-1.342;2023-02-28T09:20:39;40;35;
61592;PMS5003;47485;51.378;-1.342;2023-02-28T09:23:07;27;24;
61592;PMS5003;47485;51.378;-1.342;2023-02-28T09:25:35;33;28;
61592;PMS5003;47485;51.378;-1.342;2023-02-28T09:36:50;17;15;
61592;PMS5003;47485;51.378;-1.342;2023-02-28T09:39:18;12;12;
61592;PMS5003;47485;51.378;-1.342;2023-02-28T09:41:47;11;11;
61592;PMS5003;47485;51.378;-1.342;2023-02-28T09:44:17;19;18;
61592;PMS5003;47485;51.378;-1.342;2023-02-28T09:46:50;11;10;
61592;PMS5003;47485;51.378;-1.342;2023-02-28T09:49:22;10;9;
61592;PMS5003;47485;51.378;-1.342;2023-02-28T09:51:54;9;8;
61592;PMS5003;47485;51.378;-1.342;2023-02-28T09:54:24;6;4;
61592;PMS5003;47485;51.378;-1.342;2023-02-28T09:56:55;11;10;
61592;PMS5003;47485;51.378;-1.342;2023-02-28T09:59:31;7;6;
61592;PMS5003;47485;51.378;-1.342;2023-02-28T10:02:10;8;8;
61592;PMS5003;47485;51.378;-1.342;2023-02-28T10:04:47;16;12;
61592;PMS5003;47485;51.378;-1.342;2023-02-28T10:07:22;11;11;
61592;PMS5003;47485;51.378;-1.342;2023-02-28T10:10:01;11;7;
61592;PMS5003;47485;51.378;-1.342;2023-02-28T10:12:34;12;11;
61592;PMS5003;47485;51.378;-1.342;2023-02-28T10:15:08;17;16;
61592;PMS5003;47485;51.378;-1.342;2023-02-28T10:17:40;16;13;
61592;PMS5003;47485;51.378;-1.342;2023-02-28T10:20:11;10;9;
61592;PMS5003;47485;51.378;-1.342;2023-02-28T10:22:44;10;9;
61592;PMS5003;47485;51.378;-1.342;2023-02-28T10:25:20;7;7;
61592;PMS5003;47485;51.378;-1.342;2023-02-28T10:27:49;8;7;
61592;PMS5003;47485;51.378;-1.342;2023-02-28T10:27:53;8;7;
61592;PMS5003;47485;51.378;-1.342;2023-02-28T10:30:24;4;4;
61592;PMS5003;47485;51.378;-1.342;2023-02-28T10:32:52;13;12;
61592;PMS5003;47485;51.378;-1.342;2023-02-28T10:35:19;18;15;
61592;PMS5003;47485;51.378;-1.342;2023-02-28T10:37:49;8;7;
61592;PMS5003;47485;51.378;-1.342;2023-02-28T10:40:28;7;7;
61592;PMS5003;47485;51.378;-1.342;2023-02-28T10:42:58;3;3;
61592;PMS5003;47485;51.378;-1.342;2023-02-28T10:45:27;3;3;
61592;PMS5003;47485;51.378;-1.342;2023-02-28T10:48:01;5;4;
61592;PMS5003;47485;51.378;-1.342;2023-02-28T10:50:32;4;3;
61592;PMS5003;47485;51.378;-1.342;2023-02-28T10:54:14;6;4;
61592;PMS5003;47485;51.378;-1.342;2023-02-28T10:56:42;4;3;
61592;PMS5003;47485;51.378;-1.342;2023-02-28T10:59:22;3;2;
61592;PMS5003;47485;51.378;-1.342;2023-02-28T11:01:54;6;3;
61592;PMS5003;47485;51.378;-1.342;2023-02-28T11:04:32;3;3;
61592;PMS5003;47485;51.378;-1.342;2023-02-28T11:07:01;3;3;
61592;PMS5003;47485;51.378;-1.342;2023-02-28T11:09:30;2;2;
61592;PMS5003;47485;51.378;-1.342;2023-02-28T11:11:59;3;3;
61592;PMS5003;47485;51.378;-1.342;2023-02-28T11:14:28;2;2;
61592;PMS5003;47485;51.378;-1.342;2023-02-28T11:16:58;4;3;
61592;PMS5003;47485;51.378;-1.342;2023-02-28T11:19:40;3;3;
61592;PMS5003;47485;51.378;-1.342;2023-02-28T11:22:15;7;5;
61592;PMS5003;47485;51.378;-1.342;2023-02-28T11:24:45;4;4;
61592;PMS5003;47485;51.378;-1.342;2023-02-28T11:27:24;4;4;
61592;PMS5003;47485;51.378;-1.342;2023-02-28T11:30:11;9;5;
61592;PMS5003;47485;51.378;-1.342;2023-02-28T11:32:51;4;4;
61592;PMS5003;47485;51.378;-1.342;2023-02-28T11:35:21;6;4;
61592;PMS5003;47485;51.378;-1.342;2023-02-28T11:37:52;6;5;
61592;PMS5003;47485;51.378;-1.342;2023-02-28T11:40:21;6;6;
61592;PMS5003;47485;51.378;-1.342;2023-02-28T11:42:57;8;7;
61592;PMS5003;47485;51.378;-1.342;2023-02-28T11:45:35;14;10;
61592;PMS5003;47485;51.378;-1.342;2023-02-28T11:48:12;8;8;
61592;PMS5003;47485;51.378;-1.342;2023-02-28T11:50:49;18;13;
61592;PMS5003;47485;51.378;-1.342;2023-02-28T11:53:29;9;8;
61592;PMS5003;47485;51.378;-1.342;2023-02-28T11:56:11;7;7;
61592;PMS5003;47485;51.378;-1.342;2023-02-28T11:58:46;12;10;
61592;PMS5003;47485;51.378;-1.342;2023-02-28T12:01:23;10;7;
61592;PMS5003;47485;51.378;-1.342;2023-02-28T12:04:10;8;8;
61592;PMS5003;47485;51.378;-1.342;2023-02-28T12:06:45;15;10;
61592;PMS5003;47485;51.378;-1.342;2023-02-28T12:09:32;38;25;
61592;PMS5003;47485;51.378;-1.342;2023-02-28T12:12:12;9;8;
61592;PMS5003;47485;51.378;-1.342;2023-02-28T12:14:53;13;12;
61592;PMS5003;47485;51.378;-1.342;2023-02-28T12:17:35;16;12;
61592;PMS5003;47485;51.378;-1.342;2023-02-28T12:20:16;10;8;
61592;PMS5003;47485;51.378;-1.342;2023-02-28T12:22:52;29;25;
61592;PMS5003;47485;51.378;-1.342;2023-02-28T12:25:34;10;9;
61592;PMS5003;47485;51.378;-1.342;2023-02-28T12:28:13;9;6;
61592;PMS5003;47485;51.378;-1.342;2023-02-28T12:30:44;11;8;
61592;PMS5003;47485;51.378;-1.342;2023-02-28T12:33:17;7;6;
61592;PMS5003;47485;51.378;-1.342;2023-02-28T12:35:50;9;7;
61592;PMS5003;47485;51.378;-1.342;2023-02-28T12:38:22;7;7;
61592;PMS5003;47485;51.378;-1.342;2023-02-28T12:40:52;5;5;
61592;PMS5003;47485;51.378;-1.342;2023-02-28T12:43:25;8;7;
61592;PMS5003;47485;51.378;-1.342;2023-02-28T12:45:58;8;6;
61592;PMS5003;47485;51.378;-1.342;2023-02-28T12:48:31;8;7;
61592;PMS5003;47485;51.378;-1.342;2023-02-28T12:51:03;8;6;
61592;PMS5003;47485;51.378;-1.342;2023-02-28T12:53:35;10;10;
61592;PMS5003;47485;51.378;-1.342;2023-02-28T12:56:12;10;9;
61592;PMS5003;47485;51.378;-1.342;2023-02-28T12:58:45;6;6;
61592;PMS5003;47485;51.378;-1.342;2023-02-28T13:01:22;4;4;
61592;PMS5003;47485;51.378;-1.342;2023-02-28T13:04:07;4;4;
61592;PMS5003;47485;51.378;-1.342;2023-02-28T13:07:03;4;4;
61592;PMS5003;47485;51.378;-1.342;2023-02-28T13:09:44;6;6;
61592;PMS5003;47485;51.378;-1.342;2023-02-28T13:12:18;7;6;
61592;PMS5003;47485;51.378;-1.342;2023-02-28T13:14:45;6;6;
61592;PMS5003;47485;51.378;-1.342;2023-02-28T13:17:14;5;5;
61592;PMS5003;47485;51.378;-1.342;2023-02-28T13:19:45;7;6;
61592;PMS5003;47485;51.378;-1.342;2023-02-28T13:22:36;8;8;
61592;PMS5003;47485;51.378;-1.342;2023-02-28T13:25:54;7;4;
61592;PMS5003;47485;51.378;-1.342;2023-02-28T13:28:57;6;5;
61592;PMS5003;47485;51.378;-1.342;2023-02-28T13:31:24;5;5;
61592;PMS5003;47485;51.378;-1.342;2023-02-28T13:34:23;8;8;
61592;PMS5003;47485;51.378;-1.342;2023-02-28T13:36:50;7;6;
61592;PMS5003;47485;51.378;-1.342;2023-02-28T13:39:58;9;9;
61592;PMS5003;47485;51.378;-1.342;2023-02-28T13:42:46;7;6;
61592;PMS5003;47485;51.378;-1.342;2023-02-28T13:45:23;7;5;
61592;PMS5003;47485;51.378;-1.342;2023-02-28T13:47:53;6;6;
61592;PMS5003;47485;51.378;-1.342;2023-02-28T13:50:23;11;7;
61592;PMS5003;47485;51.378;-1.342;2023-02-28T13:52:57;9;7;
61592;PMS5003;47485;51.378;-1.342;2023-02-28T13:55:44;9;9;
61592;PMS5003;47485;51.378;-1.342;2023-02-28T13:58:22;8;8;
61592;PMS5003;47485;51.378;-1.342;2023-02-28T14:01:06;9;5;
61592;PMS5003;47485;51.378;-1.342;2023-02-28T14:03:46;7;5;
61592;PMS5003;47485;51.378;-1.342;2023-02-28T14:06:29;6;6;
61592;PMS5003;47485;51.378;-1.342;2023-02-28T14:08:58;7;7;
61592;PMS5003;47485;51.378;-1.342;2023-02-28T14:11:29;8;7;
61592;PMS5003;47485;51.378;-1.342;2023-02-28T14:13:58;8;8;
61592;PMS5003;47485;51.378;-1.342;2023-02-28T14:16:26;8;8;
61592;PMS5003;47485;51.378;-1.342;2023-02-28T14:19:01;5;5;
61592;PMS5003;47485;51.378;-1.342;2023-02-28T14:21:36;7;6;
61592;PMS5003;47485;51.378;-1.342;2023-02-28T14:24:16;6;6;
61592;PMS5003;47485;51.378;-1.342;2023-02-28T14:27:00;7;6;
61592;PMS5003;47485;51.378;-1.342;2023-02-28T14:29:46;10;7;
61592;PMS5003;47485;51.378;-1.342;2023-02-28T14:32:41;5;5;
61592;PMS5003;47485;51.378;-1.342;2023-02-28T14:35:18;6;6;
61592;PMS5003;47485;51.378;-1.342;2023-02-28T14:37:55;8;8;
61592;PMS5003;47485;51.378;-1.342;2023-02-28T14:40:25;7;6;
61592;PMS5003;47485;51.378;-1.342;2023-02-28T14:42:57;5;5;
61592;PMS5003;47485;51.378;-1.342;2023-02-28T14:45:25;5;5;
61592;PMS5003;47485;51.378;-1.342;2023-02-28T14:47:56;8;7;
61592;PMS5003;47485;51.378;-1.342;2023-02-28T14:50:27;7;7;
61592;PMS5003;47485;51.378;-1.342;2023-02-28T14:52:56;11;8;
61592;PMS5003;47485;51.378;-1.342;2023-02-28T14:55:25;13;8;
61592;PMS5003;47485;51.378;-1.342;2023-02-28T14:57:56;9;7;
61592;PMS5003;47485;51.378;-1.342;2023-02-28T15:00:26;7;6;
61592;PMS5003;47485;51.378;-1.342;2023-02-28T15:02:55;9;7;
61592;PMS5003;47485;51.378;-1.342;2023-02-28T15:05:25;6;5;
61592;PMS5003;47485;51.378;-1.342;2023-02-28T15:08:02;11;9;
61592;PMS5003;47485;51.378;-1.342;2023-02-28T15:10:32;10;7;
61592;PMS5003;47485;51.378;-1.342;2023-02-28T15:13:00;15;14;
61592;PMS5003;47485;51.378;-1.342;2023-02-28T15:15:34;7;7;
61592;PMS5003;47485;51.378;-1.342;2023-02-28T15:18:06;7;6;
61592;PMS5003;47485;51.378;-1.342;2023-02-28T15:20:37;7;6;
61592;PMS5003;47485;51.378;-1.342;2023-02-28T15:23:05;5;5;
61592;PMS5003;47485;51.378;-1.342;2023-02-28T15:25:32;7;6;
61592;PMS5003;47485;51.378;-1.342;2023-02-28T15:28:00;6;6;
61592;PMS5003;47485;51.378;-1.342;2023-02-28T15:30:27;6;6;
61592;PMS5003;47485;51.378;-1.342;2023-02-28T15:33:04;5;5;
61592;PMS5003;47485;51.378;-1.342;2023-02-28T15:35:33;8;7;
61592;PMS5003;47485;51.378;-1.342;2023-02-28T15:38:02;6;6;
61592;PMS5003;47485;51.378;-1.342;2023-02-28T15:40:41;9;5;
61592;PMS5003;47485;51.378;-1.342;2023-02-28T15:43:12;8;7;
61592;PMS5003;47485;51.378;-1.342;2023-02-28T15:45:41;8;8;
61592;PMS5003;47485;51.378;-1.342;2023-02-28T15:48:14;7;6;
61592;PMS5003;47485;51.378;-1.342;2023-02-28T15:50:46;5;5;
61592;PMS5003;47485;51.378;-1.342;2023-02-28T15:53:17;6;5;
61592;PMS5003;47485;51.378;-1.342;2023-02-28T15:55:51;6;5;
61592;PMS5003;47485;51.378;-1.342;2023-02-28T15:58:21;6;5;
61592;PMS5003;47485;51.378;-1.342;2023-02-28T16:00:59;4;3;
61592;PMS5003;47485;51.378;-1.342;2023-02-28T16:03:34;5;5;
61592;PMS5003;47485;51.378;-1.342;2023-02-28T16:06:26;4;4;
61592;PMS5003;47485;51.378;-1.342;2023-02-28T16:09:03;5;5;
61592;PMS5003;47485;51.378;-1.342;2023-02-28T16:11:32;8;8;
61592;PMS5003;47485;51.378;-1.342;2023-02-28T16:14:01;9;8;
61592;PMS5003;47485;51.378;-1.342;2023-02-28T16:16:28;13;12;
61592;PMS5003;47485;51.378;-1.342;2023-02-28T16:18:55;7;6;
61592;PMS5003;47485;51.378;-1.342;2023-02-28T16:21:22;5;5;
61592;PMS5003;47485;51.378;-1.342;2023-02-28T16:23:50;11;6;
61592;PMS5003;47485;51.378;-1.342;2023-02-28T16:26:20;5;5;
61592;PMS5003;47485;51.378;-1.342;2023-02-28T16:28:49;9;7;
61592;PMS5003;47485;51.378;-1.342;2023-02-28T16:31:18;9;6;
61592;PMS5003;47485;51.378;-1.342;2023-02-28T16:33:45;10;8;
61592;PMS5003;47485;51.378;-1.342;2023-02-28T16:36:14;10;10;
61592;PMS5003;47485;51.378;-1.342;2023-02-28T16:38:42;11;10;
61592;PMS5003;47485;51.378;-1.342;2023-02-28T16:41:12;11;11;
61592;PMS5003;47485;51.378;-1.342;2023-02-28T16:43:43;11;11;
61592;PMS5003;47485;51.378;-1.342;2023-02-28T16:46:11;12;9;
61592;PMS5003;47485;51.378;-1.342;2023-02-28T16:48:37;7;7;
61592;PMS5003;47485;51.378;-1.342;2023-02-28T16:51:04;9;8;